createdAt,value
2023-04-08T00:00:30.878Z,26.73
2023-04-08T00:02:57.823Z,27.43
2023-04-08T00:05:24.985Z,21.27
2023-04-08T00:07:51.759Z,24.93
2023-04-08T00:10:18.732Z,23.00
2023-04-08T00:12:47.203Z,25.40
2023-04-08T00:15:14.083Z,21.13
2023-04-08T00:17:41.744Z,22.23
2023-04-08T00:20:09.250Z,21.70
2023-04-08T00:22:36.673Z,24.33
2023-04-08T00:25:06.581Z,24.97
2023-04-08T00:27:33.831Z,20.53
2023-04-08T00:30:01.749Z,22.10
2023-04-08T00:32:29.199Z,22.13
2023-04-08T00:34:56.485Z,20.20
2023-04-08T00:37:25.020Z,20.17
2023-04-08T00:39:54.158Z,21.77
2023-04-08T00:42:22.240Z,22.17
2023-04-08T00:44:49.352Z,21.17
2023-04-08T00:47:16.709Z,17.90
2023-04-08T00:49:44.472Z,21.70
2023-04-08T00:52:12.319Z,24.23
2023-04-08T00:54:39.186Z,32.40
2023-04-08T00:57:09.246Z,30.33
2023-04-08T00:59:36.563Z,31.43
2023-04-08T01:02:58.917Z,32.53
2023-04-08T01:05:54.876Z,35.83
2023-04-08T01:08:23.291Z,27.90
2023-04-08T01:10:53.122Z,32.07
2023-04-08T01:13:23.710Z,32.03
2023-04-08T01:15:50.737Z,28.97
2023-04-08T01:18:18.714Z,29.77
2023-04-08T01:20:46.750Z,29.17
2023-04-08T01:23:31.105Z,31.53
2023-04-08T01:25:58.633Z,25.60
2023-04-08T01:28:29.679Z,27.73
2023-04-08T01:30:59.420Z,27.97
2023-04-08T01:33:28.650Z,25.70
2023-04-08T01:35:57.805Z,29.00
2023-04-08T01:38:26.657Z,24.30
2023-04-08T01:40:55.678Z,27.57
2023-04-08T01:43:24.404Z,26.50
2023-04-08T01:45:54.610Z,26.53
2023-04-08T01:48:22.662Z,28.03
2023-04-08T01:50:51.331Z,29.97
2023-04-08T01:53:18.645Z,28.57
2023-04-08T01:55:46.018Z,27.60
2023-04-08T01:58:19.907Z,28.87
2023-04-08T02:00:47.342Z,27.70
2023-04-08T02:03:17.657Z,31.60
2023-04-08T02:05:44.841Z,28.70
2023-04-08T02:08:13.054Z,26.37
2023-04-08T02:10:40.797Z,30.70
2023-04-08T02:13:08.361Z,33.00
2023-04-08T02:15:38.219Z,26.77
2023-04-08T02:18:17.192Z,32.80
2023-04-08T02:20:50.371Z,32.07
2023-04-08T02:23:22.499Z,44.10
2023-04-08T02:25:50.654Z,32.90
2023-04-08T02:28:19.723Z,29.53
2023-04-08T02:30:52.185Z,32.60
2023-04-08T02:33:22.205Z,33.10
2023-04-08T02:35:51.483Z,30.93
2023-04-08T02:38:18.542Z,29.33
2023-04-08T02:40:45.646Z,32.40
2023-04-08T02:43:12.446Z,32.30
2023-04-08T02:45:42.134Z,37.97
2023-04-08T02:48:09.918Z,32.90
2023-04-08T02:50:37.244Z,31.20
2023-04-08T02:53:04.236Z,27.57
2023-04-08T02:55:31.062Z,29.20
2023-04-08T02:57:57.862Z,31.73
2023-04-08T03:00:24.637Z,33.57
2023-04-08T03:02:51.778Z,33.87
2023-04-08T03:05:19.096Z,36.90
2023-04-08T03:07:46.187Z,32.33
2023-04-08T03:10:13.010Z,32.50
2023-04-08T03:12:39.803Z,30.47
2023-04-08T03:15:07.398Z,28.07
2023-04-08T03:17:34.765Z,29.93
2023-04-08T03:20:04.844Z,34.10
2023-04-08T03:22:31.996Z,33.10
2023-04-08T03:24:58.879Z,32.37
2023-04-08T03:27:26.334Z,29.27
2023-04-08T03:29:53.984Z,33.03
2023-04-08T03:32:21.188Z,31.13
2023-04-08T03:34:49.723Z,27.83
2023-04-08T03:37:17.509Z,38.73
2023-04-08T03:39:44.419Z,30.73
2023-04-08T03:42:11.404Z,35.87
2023-04-08T03:44:38.378Z,37.40
2023-04-08T03:47:05.231Z,32.90
2023-04-08T03:49:32.085Z,33.77
2023-04-08T03:51:58.983Z,36.23
2023-04-08T03:54:25.739Z,34.93
2023-04-08T03:56:52.600Z,37.83
2023-04-08T03:59:19.724Z,31.77
2023-04-08T04:01:47.577Z,31.90
2023-04-08T04:04:14.899Z,30.73
2023-04-08T04:06:41.961Z,34.57
2023-04-08T04:09:09.077Z,32.33
2023-04-08T04:11:35.934Z,37.93
2023-04-08T04:14:02.826Z,34.30
2023-04-08T04:16:32.820Z,36.20
2023-04-08T04:19:00.382Z,39.60
2023-04-08T04:21:27.467Z,35.43
2023-04-08T04:23:54.333Z,36.90
2023-04-08T04:26:21.248Z,34.90
2023-04-08T04:28:48.641Z,38.63
2023-04-08T04:31:21.804Z,43.10
2023-04-08T04:33:49.235Z,37.40
2023-04-08T04:36:16.212Z,37.27
2023-04-08T04:38:44.073Z,39.80
2023-04-08T04:41:12.238Z,47.97
2023-04-08T04:43:39.176Z,51.10
2023-04-08T04:46:08.886Z,43.23
2023-04-08T04:48:36.497Z,48.80
2023-04-08T04:51:03.715Z,49.70
2023-04-08T04:53:31.601Z,56.77
2023-04-08T04:56:01.258Z,54.63
2023-04-08T04:58:28.725Z,54.93
2023-04-08T05:00:56.428Z,52.67
2023-04-08T05:03:23.609Z,52.13
2023-04-08T05:05:54.727Z,45.33
2023-04-08T05:08:22.184Z,41.80
2023-04-08T05:10:50.812Z,38.33
2023-04-08T05:13:18.757Z,33.17
2023-04-08T05:15:46.011Z,35.87
2023-04-08T05:18:13.614Z,36.80
2023-04-08T05:20:40.586Z,33.93
2023-04-08T05:23:08.914Z,34.03
2023-04-08T05:25:36.199Z,34.27
2023-04-08T05:28:03.966Z,30.70
2023-04-08T05:30:32.923Z,30.73
2023-04-08T05:33:00.807Z,28.97
2023-04-08T05:35:28.723Z,30.17
2023-04-08T05:37:55.683Z,30.33
2023-04-08T05:40:22.771Z,30.30
2023-04-08T05:42:49.692Z,30.57
2023-04-08T05:45:16.712Z,28.00
2023-04-08T05:47:43.609Z,27.83
2023-04-08T05:50:11.469Z,29.43
2023-04-08T05:52:43.703Z,26.47
2023-04-08T05:55:11.432Z,24.83
2023-04-08T05:57:38.418Z,24.47
2023-04-08T06:00:07.084Z,21.77
2023-04-08T06:02:35.004Z,25.53
2023-04-08T06:05:03.820Z,25.00
2023-04-08T06:07:32.021Z,24.13
2023-04-08T06:09:58.946Z,22.57
2023-04-08T06:12:25.756Z,24.17
2023-04-08T06:14:56.280Z,29.20
2023-04-08T06:17:23.247Z,20.43
2023-04-08T06:19:50.459Z,20.80
2023-04-08T06:22:17.505Z,21.90
2023-04-08T06:24:44.794Z,21.03
2023-04-08T06:27:11.781Z,19.80
2023-04-08T06:29:39.699Z,16.03
2023-04-08T06:32:07.627Z,16.97
2023-04-08T06:34:34.524Z,15.93
2023-04-08T06:37:01.586Z,15.50
2023-04-08T06:39:28.554Z,14.70
2023-04-08T06:41:55.352Z,15.53
2023-04-08T06:44:22.218Z,15.27
2023-04-08T06:46:49.076Z,12.17
2023-04-08T06:49:15.936Z,12.07
2023-04-08T06:51:42.796Z,12.93
2023-04-08T06:54:10.209Z,12.87
2023-04-08T06:56:37.593Z,17.13
2023-04-08T06:59:05.701Z,15.33
2023-04-08T07:01:32.676Z,15.60
2023-04-08T07:03:59.863Z,14.70
2023-04-08T07:06:26.902Z,13.87
2023-04-08T07:08:53.775Z,10.93
2023-04-08T07:11:21.279Z,11.90
2023-04-08T07:13:48.027Z,11.37
2023-04-08T07:16:14.762Z,12.00
2023-04-08T07:18:42.625Z,12.90
2023-04-08T07:21:10.744Z,12.07
2023-04-08T07:23:37.574Z,11.20
2023-04-08T07:26:08.255Z,11.77
2023-04-08T07:28:35.256Z,11.70
2023-04-08T07:31:16.377Z,10.73
2023-04-08T07:33:44.540Z,10.97
2023-04-08T07:36:13.186Z,14.13
2023-04-08T07:38:40.892Z,11.17
2023-04-08T07:41:08.095Z,10.00
2023-04-08T07:43:37.286Z,10.07
2023-04-08T07:46:08.018Z,8.67
2023-04-08T07:48:35.482Z,8.87
2023-04-08T07:51:08.030Z,11.77
2023-04-08T07:53:38.021Z,10.80
2023-04-08T07:56:11.889Z,8.73
2023-04-08T07:58:40.471Z,9.83
2023-04-08T08:01:18.853Z,10.43
2023-04-08T08:03:47.635Z,10.00
2023-04-08T08:06:15.489Z,10.50
2023-04-08T08:08:42.568Z,12.13
2023-04-08T08:11:09.581Z,8.03
2023-04-08T08:13:36.561Z,8.50
2023-04-08T08:16:03.730Z,8.83
2023-04-08T08:18:30.791Z,10.70
2023-04-08T08:20:57.513Z,9.03
2023-04-08T08:23:24.413Z,9.57
2023-04-08T08:26:03.054Z,9.50
2023-04-08T08:28:30.135Z,11.13
2023-04-08T08:30:57.332Z,8.37
2023-04-08T08:33:25.392Z,9.83
2023-04-08T08:35:52.583Z,9.43
2023-04-08T08:38:19.779Z,7.67
2023-04-08T08:40:46.889Z,9.97
2023-04-08T08:43:14.355Z,9.50
2023-04-08T08:45:42.276Z,8.77
2023-04-08T08:48:09.639Z,8.77
2023-04-08T08:50:37.686Z,9.90
2023-04-08T08:53:04.751Z,9.80
2023-04-08T08:55:50.755Z,10.83
2023-04-08T08:58:20.780Z,9.37
2023-04-08T09:00:47.894Z,9.53
2023-04-08T09:03:27.912Z,10.17
2023-04-08T09:05:59.850Z,13.27
2023-04-08T09:08:34.024Z,10.87
2023-04-08T09:11:18.017Z,11.63
2023-04-08T09:13:46.295Z,11.30
2023-04-08T09:16:16.747Z,13.53
2023-04-08T09:18:49.053Z,10.00
2023-04-08T09:21:17.858Z,15.73
2023-04-08T09:23:46.867Z,10.93
2023-04-08T09:26:14.941Z,10.13
2023-04-08T09:28:43.356Z,11.33
2023-04-08T09:31:27.730Z,10.40
2023-04-08T09:34:00.176Z,10.83
2023-04-08T09:36:28.689Z,12.40
2023-04-08T09:38:56.741Z,12.27
2023-04-08T09:41:24.909Z,10.67
2023-04-08T09:43:55.729Z,11.63
2023-04-08T09:46:46.392Z,11.43
2023-04-08T09:49:18.889Z,9.70
2023-04-08T09:52:00.913Z,11.97
2023-04-08T09:54:44.068Z,10.37
2023-04-08T09:57:14.286Z,10.48
2023-04-08T09:59:49.086Z,11.40
2023-04-08T10:02:20.126Z,13.37
2023-04-08T10:04:50.823Z,11.27
2023-04-08T10:07:19.272Z,10.63
2023-04-08T10:09:46.511Z,13.63
2023-04-08T10:12:14.067Z,11.17
2023-04-08T10:14:41.027Z,9.70
2023-04-08T10:17:36.057Z,10.30
2023-04-08T10:20:03.274Z,12.73
2023-04-08T10:22:32.912Z,12.17
2023-04-08T10:25:18.702Z,10.33
2023-04-08T10:27:45.852Z,11.43
2023-04-08T10:30:27.810Z,11.47
2023-04-08T10:32:56.932Z,10.30
2023-04-08T10:35:30.535Z,11.97
2023-04-08T10:37:59.165Z,9.63
2023-04-08T10:40:27.425Z,12.03
2023-04-08T10:43:00.662Z,12.60
2023-04-08T10:45:28.721Z,9.18
2023-04-08T10:47:55.717Z,9.98
2023-04-08T10:50:25.373Z,9.47
2023-04-08T10:52:54.029Z,10.50
2023-04-08T10:55:24.801Z,10.30
2023-04-08T10:57:52.001Z,11.87
2023-04-08T11:00:20.164Z,8.27
2023-04-08T11:02:47.458Z,10.00
2023-04-08T11:05:14.310Z,8.97
2023-04-08T11:07:44.425Z,8.63
2023-04-08T11:10:11.724Z,9.38
2023-04-08T11:12:38.801Z,10.00
2023-04-08T11:15:06.242Z,8.63
2023-04-08T11:17:35.025Z,8.52
2023-04-08T11:20:06.257Z,8.48
2023-04-08T11:22:34.617Z,9.65
2023-04-08T11:25:02.669Z,8.70
2023-04-08T11:27:30.069Z,7.80
2023-04-08T11:29:57.364Z,9.70
2023-04-08T11:32:25.074Z,7.72
2023-04-08T11:34:53.459Z,9.52
2023-04-08T11:37:20.773Z,9.90
2023-04-08T11:39:47.554Z,9.18
2023-04-08T11:42:31.239Z,8.27
2023-04-08T11:44:58.627Z,8.80
2023-04-08T11:47:35.200Z,9.82
2023-04-08T11:50:02.689Z,9.30
2023-04-08T11:52:49.649Z,7.68
2023-04-08T11:55:27.616Z,7.32
2023-04-08T11:57:55.785Z,7.22
2023-04-08T12:00:23.492Z,7.80
2023-04-08T12:02:51.933Z,7.43
2023-04-08T12:05:19.007Z,8.60
2023-04-08T12:07:45.876Z,9.70
2023-04-08T12:10:13.696Z,9.23
2023-04-08T12:12:41.040Z,9.52
2023-04-08T12:15:08.656Z,10.70
2023-04-08T12:17:36.186Z,9.57
2023-04-08T12:20:04.303Z,9.55
2023-04-08T12:22:31.375Z,10.20
2023-04-08T12:24:59.352Z,10.75
2023-04-08T12:27:26.438Z,9.52
2023-04-08T12:29:53.525Z,8.40
2023-04-08T12:32:20.695Z,9.32
2023-04-08T12:34:47.617Z,9.85
2023-04-08T12:37:14.552Z,9.68
2023-04-08T12:39:42.022Z,8.23
2023-04-08T12:42:09.080Z,10.70
2023-04-08T12:44:36.057Z,8.30
2023-04-08T12:47:02.837Z,8.15
2023-04-08T12:49:30.795Z,8.68
2023-04-08T12:51:59.253Z,7.57
2023-04-08T12:54:26.190Z,6.90
2023-04-08T12:56:52.974Z,7.88
2023-04-08T12:59:19.805Z,7.68
2023-04-08T13:01:47.269Z,8.18
2023-04-08T13:04:14.114Z,7.97
2023-04-08T13:06:41.078Z,9.23
2023-04-08T13:09:08.074Z,8.63
2023-04-08T13:11:34.905Z,7.75
2023-04-08T13:14:02.192Z,7.00
2023-04-08T13:16:28.903Z,7.65
2023-04-08T13:18:55.844Z,7.07
2023-04-08T13:21:22.737Z,6.53
2023-04-08T13:23:49.722Z,8.73
2023-04-08T13:26:16.694Z,6.72
2023-04-08T13:28:55.909Z,6.15
2023-04-08T13:31:24.849Z,6.18
2023-04-08T13:33:51.667Z,5.97
2023-04-08T13:36:18.766Z,5.55
2023-04-08T13:38:46.229Z,6.82
2023-04-08T13:41:13.128Z,6.32
2023-04-08T13:43:39.970Z,7.43
2023-04-08T13:46:06.961Z,6.70
2023-04-08T13:48:33.954Z,7.63
2023-04-08T13:51:00.804Z,6.65
2023-04-08T13:53:27.752Z,6.00
2023-04-08T13:55:55.994Z,7.20
2023-04-08T13:58:24.452Z,7.68
2023-04-08T14:00:52.096Z,5.82
2023-04-08T14:03:19.549Z,5.05
2023-04-08T14:05:46.640Z,10.43
2023-04-08T14:08:13.937Z,16.98
2023-04-08T14:10:42.351Z,6.40
2023-04-08T14:13:09.730Z,5.10
2023-04-08T14:15:36.627Z,6.78
2023-04-08T14:18:03.779Z,5.53
2023-04-08T14:20:31.308Z,5.55
2023-04-08T14:22:58.345Z,5.38
2023-04-08T14:25:25.837Z,6.55
2023-04-08T14:27:58.384Z,6.18
2023-04-08T14:30:27.249Z,7.32
2023-04-08T14:32:54.735Z,10.40
2023-04-08T14:35:21.843Z,8.88
2023-04-08T14:37:48.767Z,6.20
2023-04-08T14:40:15.587Z,6.10
2023-04-08T14:42:42.662Z,6.28
2023-04-08T14:45:10.327Z,6.78
2023-04-08T14:47:37.232Z,6.30
2023-04-08T14:50:04.245Z,7.95
2023-04-08T14:52:31.139Z,6.70
2023-04-08T14:54:58.024Z,6.55
2023-04-08T14:57:24.789Z,5.90
2023-04-08T14:59:52.380Z,6.32
2023-04-08T15:02:19.339Z,6.68
2023-04-08T15:04:46.203Z,5.97
2023-04-08T15:07:13.240Z,6.90
2023-04-08T15:09:40.020Z,6.43
2023-04-08T15:12:06.779Z,6.40
2023-04-08T15:14:33.469Z,6.22
2023-04-08T15:17:00.550Z,6.15
2023-04-08T15:19:27.293Z,6.05
2023-04-08T15:21:54.026Z,6.25
2023-04-08T15:24:21.007Z,6.13
2023-04-08T15:26:47.718Z,6.07
2023-04-08T15:29:14.449Z,7.05
2023-04-08T15:31:41.541Z,6.13
2023-04-08T15:34:08.327Z,6.68
2023-04-08T15:36:37.366Z,6.47
2023-04-08T15:39:04.362Z,7.28
2023-04-08T15:41:32.415Z,7.32
2023-04-08T15:43:59.263Z,6.50
2023-04-08T15:46:26.324Z,7.00
2023-04-08T15:48:53.388Z,6.95
2023-04-08T15:51:20.957Z,8.27
2023-04-08T15:53:47.731Z,7.38
2023-04-08T15:56:16.347Z,8.13
2023-04-08T15:58:44.163Z,9.32
2023-04-08T16:01:11.253Z,7.15
2023-04-08T16:03:38.777Z,11.02
2023-04-08T16:06:08.771Z,9.75
2023-04-08T16:08:35.920Z,7.88
2023-04-08T16:11:04.455Z,8.43
2023-04-08T16:13:31.990Z,9.93
2023-04-08T16:16:01.657Z,8.25
2023-04-08T16:18:29.239Z,8.88
2023-04-08T16:20:56.894Z,8.75
2023-04-08T16:23:24.887Z,7.38
2023-04-08T16:25:52.025Z,9.23
2023-04-08T16:28:18.897Z,8.80
2023-04-08T16:30:47.754Z,9.25
2023-04-08T16:33:14.979Z,8.43
2023-04-08T16:35:41.814Z,9.00
2023-04-08T16:38:08.652Z,9.30
2023-04-08T16:40:35.565Z,9.27
2023-04-08T16:43:04.215Z,9.13
2023-04-08T16:45:32.663Z,11.05
2023-04-08T16:48:00.564Z,11.77
2023-04-08T16:50:28.407Z,13.77
2023-04-08T16:52:55.725Z,13.60
2023-04-08T16:55:23.023Z,11.40
2023-04-08T16:57:49.871Z,13.82
2023-04-08T17:00:18.701Z,14.00
2023-04-08T17:02:47.835Z,18.08
2023-04-08T17:05:15.191Z,21.95
2023-04-08T17:07:42.080Z,16.40
2023-04-08T17:10:09.357Z,19.40
2023-04-08T17:12:36.388Z,14.43
2023-04-08T17:15:03.734Z,15.97
2023-04-08T17:17:30.854Z,16.13
2023-04-08T17:19:58.234Z,14.97
2023-04-08T17:22:25.200Z,13.53
2023-04-08T17:24:51.947Z,15.88
2023-04-08T17:27:18.985Z,16.20
2023-04-08T17:29:45.993Z,16.52
2023-04-08T17:32:13.468Z,21.58
2023-04-08T17:34:40.998Z,17.98
2023-04-08T17:37:10.144Z,15.37
2023-04-08T17:39:40.810Z,15.50
2023-04-08T17:42:08.342Z,20.43
2023-04-08T17:44:36.295Z,18.73
2023-04-08T17:47:03.741Z,21.37
2023-04-08T17:49:30.501Z,19.30
2023-04-08T17:51:57.724Z,19.87
2023-04-08T17:54:25.002Z,18.40
2023-04-08T17:56:51.898Z,15.97
2023-04-08T17:59:18.719Z,17.40
2023-04-08T18:01:45.649Z,16.37
2023-04-08T18:04:13.790Z,20.58
2023-04-08T18:06:40.753Z,14.60
2023-04-08T18:09:07.464Z,13.13
2023-04-08T18:11:34.182Z,15.50
2023-04-08T18:14:00.909Z,14.23
2023-04-08T18:16:27.730Z,16.20
2023-04-08T18:18:54.546Z,17.97
2023-04-08T18:21:22.169Z,18.97
2023-04-08T18:23:50.047Z,14.57
2023-04-08T18:26:17.248Z,16.73
2023-04-08T18:28:44.289Z,13.93
2023-04-08T18:31:11.169Z,13.80
2023-04-08T18:33:39.175Z,12.43
2023-04-08T18:36:10.593Z,12.77
2023-04-08T18:38:38.100Z,13.13
2023-04-08T18:41:04.974Z,13.23
2023-04-08T18:43:32.589Z,11.87
2023-04-08T18:45:59.952Z,9.87
2023-04-08T18:48:26.787Z,12.50
2023-04-08T18:50:53.591Z,9.47
2023-04-08T18:53:20.322Z,12.17
2023-04-08T18:55:47.042Z,10.97
2023-04-08T18:58:14.017Z,13.00
2023-04-08T19:00:41.953Z,15.85
2023-04-08T19:03:10.395Z,11.53
2023-04-08T19:05:37.663Z,9.07
2023-04-08T19:08:05.095Z,10.20
2023-04-08T19:10:32.847Z,10.73
2023-04-08T19:13:00.087Z,12.30
2023-04-08T19:15:28.671Z,12.60
2023-04-08T19:17:56.516Z,12.57
2023-04-08T19:20:23.525Z,13.17
2023-04-08T19:22:50.453Z,10.17
2023-04-08T19:25:17.650Z,9.57
2023-04-08T19:27:46.023Z,12.17
2023-04-08T19:30:13.387Z,10.30
2023-04-08T19:32:40.273Z,11.80
2023-04-08T19:35:07.764Z,12.30
2023-04-08T19:37:34.736Z,10.67
2023-04-08T19:40:01.628Z,11.07
2023-04-08T19:42:29.162Z,13.23
2023-04-08T19:44:56.217Z,12.53
2023-04-08T19:47:23.383Z,12.10
2023-04-08T19:49:50.096Z,11.63
2023-04-08T19:52:16.800Z,14.23
2023-04-08T19:54:43.816Z,11.83
2023-04-08T19:57:11.601Z,15.07
2023-04-08T19:59:38.415Z,13.87
2023-04-08T20:02:05.973Z,14.20
2023-04-08T20:04:32.988Z,17.20
2023-04-08T20:07:03.621Z,17.30
2023-04-08T20:09:32.627Z,18.83
2023-04-08T20:12:06.443Z,14.90
2023-04-08T20:14:35.516Z,14.43
2023-04-08T20:17:02.671Z,14.27
2023-04-08T20:19:29.896Z,15.50
2023-04-08T20:21:57.416Z,17.23
2023-04-08T20:24:24.365Z,18.30
2023-04-08T20:26:52.502Z,17.93
2023-04-08T20:29:19.585Z,17.63
2023-04-08T20:31:46.892Z,18.03
2023-04-08T20:34:14.201Z,27.00
2023-04-08T20:36:41.321Z,21.80
2023-04-08T20:39:11.784Z,18.13
2023-04-08T20:41:38.722Z,43.07
2023-04-08T20:44:07.036Z,21.47
2023-04-08T20:46:35.191Z,21.10
2023-04-08T20:49:03.626Z,16.43
2023-04-08T20:51:32.512Z,42.43
2023-04-08T20:53:59.936Z,47.97
2023-04-08T20:56:26.712Z,67.80
2023-04-08T20:58:54.162Z,55.57
2023-04-08T21:01:22.033Z,28.73
2023-04-08T21:03:49.300Z,25.73
2023-04-08T21:06:20.095Z,27.30
2023-04-08T21:08:47.698Z,27.93
2023-04-08T21:11:15.102Z,22.20
2023-04-08T21:13:42.448Z,24.80
2023-04-08T21:16:09.811Z,23.60
2023-04-08T21:18:39.089Z,20.10
2023-04-08T21:21:06.453Z,23.03
2023-04-08T21:23:33.246Z,20.60
2023-04-08T21:26:02.729Z,23.37
2023-04-08T21:28:30.389Z,20.50
2023-04-08T21:31:06.880Z,21.53
2023-04-08T21:33:33.809Z,17.93
2023-04-08T21:36:00.978Z,19.43
2023-04-08T21:38:27.791Z,20.23
2023-04-08T21:40:54.674Z,17.10
2023-04-08T21:43:21.943Z,16.47
2023-04-08T21:45:49.067Z,18.50
2023-04-08T21:48:15.832Z,17.37
2023-04-08T21:50:42.687Z,15.07
2023-04-08T21:53:09.496Z,17.13
2023-04-08T21:55:36.447Z,17.77
2023-04-08T21:58:03.445Z,16.70
2023-04-08T22:00:31.094Z,15.33
2023-04-08T22:02:57.979Z,15.63
2023-04-08T22:05:25.046Z,17.83
2023-04-08T22:07:51.931Z,15.37
2023-04-08T22:10:18.781Z,15.30
2023-04-08T22:12:45.964Z,13.73
2023-04-08T22:15:12.725Z,13.80
2023-04-08T22:17:39.526Z,16.37
2023-04-08T22:20:06.858Z,14.73
2023-04-08T22:22:33.696Z,14.83
2023-04-08T22:25:00.618Z,14.10
2023-04-08T22:27:28.557Z,15.37
2023-04-08T22:29:55.538Z,15.00
2023-04-08T22:32:22.283Z,16.43
2023-04-08T22:34:49.022Z,17.43
2023-04-08T22:37:16.251Z,18.20
2023-04-08T22:39:43.091Z,16.73
2023-04-08T22:42:09.944Z,18.03
2023-04-08T22:44:36.781Z,18.17
2023-04-08T22:47:03.689Z,22.27
2023-04-08T22:49:30.765Z,19.03
2023-04-08T22:51:57.708Z,20.80
2023-04-08T22:54:24.507Z,22.20
2023-04-08T22:56:51.392Z,20.83
2023-04-08T22:59:18.164Z,18.40
2023-04-08T23:01:45.580Z,17.67
2023-04-08T23:04:12.478Z,17.80
2023-04-08T23:06:39.370Z,19.90
2023-04-08T23:09:06.195Z,18.93
2023-04-08T23:11:33.017Z,22.83
2023-04-08T23:13:59.910Z,25.03
2023-04-08T23:16:27.276Z,20.87
2023-04-08T23:18:54.530Z,23.80
2023-04-08T23:21:21.608Z,22.83
2023-04-08T23:23:48.927Z,19.17
2023-04-08T23:26:21.843Z,22.20
2023-04-08T23:28:48.890Z,21.30
2023-04-08T23:31:15.859Z,21.43
2023-04-08T23:33:42.787Z,18.57
2023-04-08T23:36:11.228Z,21.47
2023-04-08T23:38:38.151Z,22.07
2023-04-08T23:41:06.167Z,17.10
2023-04-08T23:43:33.148Z,22.27
2023-04-08T23:46:00.303Z,22.23
2023-04-08T23:48:27.295Z,23.90
2023-04-08T23:50:55.189Z,21.70
2023-04-08T23:53:22.407Z,22.83
2023-04-08T23:55:49.362Z,21.07
2023-04-08T23:58:16.232Z,25.10
